»·PEaware :: N9193G KSBP-KSMX

N9193G :: KSBP-KSMX

FLIGHT INFORMATION

Flight Status: Arrived
Operator: Privately registered:
United States
More flights under this callsign
Pilot: Seung K. (26649)
Aircraft: CESSNA 206 STATIONAIR
(C206)
More flights by this aircraft type
Origin: KSBP San Luis Co Regl
United States
Destination: KSMX Santa Maria Pub/Capt Hancock
United States
More flights between these airports :: More routes between these airports
Route: DCT
File this flight plan on PilotEdge
Remarks: CAT-4 RATING
Altitude:
(Current/Filed)
3,500ft
Speed:
(Current/Filed)
110kts
Departed: 07-Dec-19 03:43 PM
Arrived: 07-Dec-19 04:04 PM
Distance/Time
Traveled:
22nm/0:21
Distance/Time
To Go:
Arrived

Flight Plot

Page will automatically refresh every two minutes.


Map Options




Map Legend


Flown Route
Filed Route
Departure Airport
Arrival Airport
Navaid (VOR, NDB)
Fix

Horizontal Profiles

Position Reports

Time Latitude Longitude Heading Altitude Ground
Speed
07-Dec-19 15:25 34.900572 -120.451307 228 265ft 0kts
07-Dec-19 15:26 34.900572 -120.451307 228 265ft 0kts
07-Dec-19 15:27 34.900572 -120.451307 228 265ft 0kts
07-Dec-19 15:28 35.237777 -120.647606 269 164ft 0kts
07-Dec-19 15:29 35.237777 -120.647606 269 164ft 0kts
07-Dec-19 15:30 35.237777 -120.647606 269 164ft 0kts
07-Dec-19 15:31 35.237777 -120.647606 269 164ft 0kts
07-Dec-19 15:32 35.237777 -120.647606 269 164ft 0kts
07-Dec-19 15:33 35.239307 -120.647770 2 161ft 19kts
07-Dec-19 15:34 35.240424 -120.647699 28 160ft 0kts
07-Dec-19 15:35 35.240424 -120.647699 28 160ft 0kts
07-Dec-19 15:36 35.234331 -120.632951 126 213ft 0kts
07-Dec-19 15:37 35.234331 -120.632951 127 213ft 0kts
07-Dec-19 15:38 35.234150 -120.633509 125 212ft 5kts
07-Dec-19 15:39 35.233171 -120.632407 215 212ft 0kts
07-Dec-19 15:40 35.233171 -120.632407 215 212ft 0kts
07-Dec-19 15:41 35.233171 -120.632407 215 212ft 0kts
07-Dec-19 15:42 35.236984 -120.639850 310 348ft 97kts
07-Dec-19 15:43 35.245894 -120.657387 227 1525ft 87kts
07-Dec-19 15:44 35.230401 -120.651677 136 2775ft 104kts
07-Dec-19 15:45 35.212114 -120.640218 160 3374ft 131kts
07-Dec-19 15:46 35.186425 -120.628842 164 3463ft 131kts
07-Dec-19 15:47 35.161297 -120.620894 171 3573ft 130kts
07-Dec-19 15:48 35.134796 -120.614271 170 3487ft 144kts
07-Dec-19 15:49 35.107131 -120.607293 173 3291ft 144kts
07-Dec-19 15:50 35.079550 -120.602279 174 3448ft 135kts
07-Dec-19 15:51 35.050979 -120.599153 174 3487ft 133kts
07-Dec-19 15:52 35.022492 -120.587806 163 3340ft 145kts
07-Dec-19 15:53 34.995485 -120.575618 155 3322ft 136kts
07-Dec-19 15:54 34.972319 -120.562114 160 3431ft 134kts
07-Dec-19 15:56 34.949420 -120.546665 136 3466ft 142kts
07-Dec-19 15:57 34.937621 -120.519176 94 3153ft 134kts
07-Dec-19 15:58 34.937579 -120.493317 102 2192ft 118kts
07-Dec-19 15:59 34.929769 -120.471906 127 1291ft 100kts
07-Dec-19 16:00 34.916621 -120.458932 153 1016ft 90kts
07-Dec-19 16:01 34.906548 -120.445952 142 1043ft 82kts
07-Dec-19 16:02 34.895687 -120.431894 137 1169ft 77kts
07-Dec-19 16:03 34.890071 -120.441558 290 564ft 85kts
07-Dec-19 16:04 34.898039 -120.452118 315 265ft 37kts
07-Dec-19 16:05 34.898713 -120.451156 83 265ft 0kts
07-Dec-19 16:06 34.898713 -120.451156 83 265ft 0kts
07-Dec-19 16:07 34.898713 -120.451156 83 265ft 0kts
07-Dec-19 16:08 34.898713 -120.451156 83 265ft 0kts
07-Dec-19 16:09 34.898713 -120.451156 83 265ft 0kts
07-Dec-19 16:10 34.898713 -120.451156 83 265ft 0kts
07-Dec-19 16:11 34.898713 -120.451156 83 265ft 0kts
07-Dec-19 16:12 34.898713 -120.451156 83 265ft 0kts
07-Dec-19 16:13 34.898713 -120.451156 83 265ft 0kts
07-Dec-19 16:14 34.898713 -120.451156 83 265ft 0kts
07-Dec-19 16:15 34.898713 -120.451156 83 265ft 0kts
07-Dec-19 16:15 34.898713 -120.451156 83 265ft 0kts

Navigation Log

Ident Type
Flight plan parsing failed, navigation log unavailable